Time;durP1;ratioP1;P1;durP2;ratioP2;P2;SDS_P1;SDS_P2;PMS_P1;PMS_P2;Temp;Humidity;BMP_temperature;BMP_pressure;BME280_temperature;BME280_humidity;BME280_pressure;Samples;Min_cycle;Max_cycle;Signal;HPM_P1;HPM_P2
2022/08/24 00:01:56;;;;;;;9.60;5.78;;;;;;;-148.16;100.00;58328.31;5031201;28;20103;-59
2022/08/24 00:04:41;;;;;;;8.82;5.78;;;;;;;-148.16;100.00;58328.31;5057863;28;20037;-58
2022/08/24 00:07:27;;;;;;;9.88;5.90;;;;;;;-148.16;100.00;58328.31;5031075;28;20139;-59
2022/08/24 00:10:12;;;;;;;10.55;6.15;;;;;;;-148.16;100.00;58328.31;5031077;28;20396;-59
2022/08/24 00:12:57;;;;;;;10.02;5.47;;;;;;;-148.16;100.00;58328.31;5031030;28;20026;-59
2022/08/24 00:15:42;;;;;;;8.25;6.35;;;;;;;-148.16;100.00;58328.31;5038786;28;20468;-59
2022/08/24 00:18:27;;;;;;;10.40;6.70;;;;;;;-148.16;100.00;58328.31;5030621;28;20046;-59
2022/08/24 00:21:13;;;;;;;9.05;5.68;;;;;;;-148.16;100.00;58328.31;5030748;28;20052;-58
2022/08/24 00:23:57;;;;;;;11.52;6.57;;;;;;;-148.16;100.00;58328.31;5030480;28;20439;-58
2022/08/24 00:26:44;;;;;;;9.15;6.07;;;;;;;-148.16;100.00;58328.31;5017783;28;20507;-59
2022/08/24 00:29:29;;;;;;;12.45;7.00;;;;;;;-148.16;100.00;58328.31;5035491;28;20033;-59
2022/08/24 00:32:15;;;;;;;10.25;6.85;;;;;;;-148.16;100.00;58328.31;5031686;28;20045;-59
2022/08/24 00:34:59;;;;;;;9.57;6.55;;;;;;;-148.16;100.00;58328.31;5034435;28;20041;-59
2022/08/24 00:37:47;;;;;;;8.90;5.70;;;;;;;-148.16;100.00;58328.31;5034519;28;20465;-59
2022/08/24 00:40:35;;;;;;;12.25;6.43;;;;;;;-148.16;100.00;58328.31;5047931;28;20381;-59
2022/08/24 00:43:25;;;;;;;11.50;6.63;;;;;;;-148.16;100.00;58328.31;5034308;28;20045;-59
2022/08/24 00:46:09;;;;;;;9.80;6.50;;;;;;;-148.16;100.00;58328.31;5034696;28;20099;-59
2022/08/24 00:49:13;;;;;;;10.18;6.22;;;;;;;-148.16;100.00;58328.31;5019307;28;20050;-58
2022/08/24 00:52:07;;;;;;;11.27;6.60;;;;;;;-148.16;100.00;58328.31;5028586;28;20041;-59
2022/08/24 00:55:06;;;;;;;11.40;6.78;;;;;;;-148.16;100.00;58328.31;5049799;28;20112;-57
2022/08/24 00:57:58;;;;;;;11.98;6.38;;;;;;;-148.16;100.00;58328.31;5048072;28;20057;-57
2022/08/24 01:00:49;;;;;;;11.27;6.50;;;;;;;-148.16;100.00;58328.31;5047049;28;20445;-57
2022/08/24 01:03:36;;;;;;;10.73;7.25;;;;;;;-148.16;100.00;58328.31;5019766;28;20048;-57
2022/08/24 01:06:21;;;;;;;9.80;6.22;;;;;;;-148.16;100.00;58328.31;5031094;28;20072;-58
2022/08/24 01:09:05;;;;;;;12.95;7.47;;;;;;;-148.16;100.00;58328.31;5052061;28;20037;-56
2022/08/24 01:11:50;;;;;;;10.18;6.30;;;;;;;-148.16;100.00;58328.31;5035405;28;20041;-58
2022/08/24 01:14:36;;;;;;;9.63;6.15;;;;;;;-148.16;100.00;58328.31;5049756;28;20045;-57
2022/08/24 01:20:25;;;;;;;10.80;7.03;;;;;;;-148.16;100.00;58328.31;5032665;28;20063;-58
2022/08/24 01:23:34;;;;;;;10.32;6.20;;;;;;;-148.16;100.00;58328.31;5067819;28;20048;-58
2022/08/24 01:26:24;;;;;;;9.63;5.90;;;;;;;-148.16;100.00;58328.31;5036953;28;20269;-58
2022/08/24 01:29:14;;;;;;;10.90;6.78;;;;;;;-148.16;100.00;58328.31;5051473;28;20037;-58
2022/08/24 01:31:59;;;;;;;10.73;6.30;;;;;;;-148.16;100.00;58328.31;5038700;28;20145;-58
2022/08/24 01:34:46;;;;;;;12.05;7.65;;;;;;;-148.16;100.00;58328.31;5033841;28;20119;-58
2022/08/24 01:37:31;;;;;;;13.02;6.97;;;;;;;-148.16;100.00;58328.31;5032796;28;20045;-59
2022/08/24 01:40:18;;;;;;;13.30;7.32;;;;;;;-148.16;100.00;58328.31;5041024;28;20033;-59
2022/08/24 01:43:06;;;;;;;12.23;6.60;;;;;;;-148.16;100.00;58328.31;5038259;28;20041;-59
2022/08/24 01:45:52;;;;;;;10.57;6.88;;;;;;;-148.16;100.00;58328.31;5018511;28;20048;-57
2022/08/24 01:48:37;;;;;;;11.70;6.57;;;;;;;-148.16;100.00;58328.31;5041258;28;20471;-58
2022/08/24 01:51:25;;;;;;;9.10;6.28;;;;;;;-148.16;100.00;58328.31;5026678;28;20068;-58
2022/08/24 01:54:13;;;;;;;11.70;6.32;;;;;;;-148.16;100.00;58328.31;5018203;28;20084;-58
2022/08/24 01:56:59;;;;;;;12.18;6.38;;;;;;;-148.16;100.00;58328.31;5032128;28;20044;-59
2022/08/24 01:59:44;;;;;;;10.23;6.88;;;;;;;-148.16;100.00;58328.31;5045153;28;20427;-58
2022/08/24 02:02:30;;;;;;;11.43;7.15;;;;;;;-148.16;100.00;58328.31;5035832;28;20057;-58
2022/08/24 02:05:16;;;;;;;11.15;6.97;;;;;;;-148.16;100.00;58328.31;5037189;28;20306;-57
2022/08/24 02:08:03;;;;;;;11.23;6.70;;;;;;;-148.16;100.00;58328.31;5044362;28;20041;-57
2022/08/24 02:10:47;;;;;;;11.27;7.40;;;;;;;-148.16;100.00;58328.31;5047335;28;20037;-59
2022/08/24 02:13:32;;;;;;;12.35;7.53;;;;;;;-148.16;100.00;58328.31;5051663;28;20036;-59
2022/08/24 02:16:17;;;;;;;11.73;6.90;;;;;;;-148.16;100.00;58328.31;5031938;28;20388;-59
2022/08/24 02:19:02;;;;;;;12.90;7.25;;;;;;;-148.16;100.00;58328.31;5072598;28;20038;-57
2022/08/24 02:21:46;;;;;;;14.90;7.95;;;;;;;-148.16;100.00;58328.31;5036657;28;20025;-58
2022/08/24 02:24:32;;;;;;;10.57;6.18;;;;;;;-148.16;100.00;58328.31;5039913;28;20049;-58
2022/08/24 02:27:17;;;;;;;17.10;6.90;;;;;;;-148.16;100.00;58328.31;5035563;28;20792;-58
2022/08/24 02:30:02;;;;;;;10.43;6.78;;;;;;;-148.16;100.00;58328.31;5038138;28;20057;-58
2022/08/24 02:32:47;;;;;;;14.30;7.75;;;;;;;-148.16;100.00;58328.31;5042308;28;20040;-58
2022/08/24 02:35:35;;;;;;;19.17;7.53;;;;;;;-148.16;100.00;58328.31;5030935;28;20049;-58
2022/08/24 02:38:21;;;;;;;11.10;7.10;;;;;;;-148.16;100.00;58328.31;5031129;28;20048;-59
2022/08/24 02:41:06;;;;;;;14.93;7.63;;;;;;;-148.16;100.00;58328.31;5045827;28;20044;-58
2022/08/24 02:43:53;;;;;;;15.40;7.63;;;;;;;-148.16;100.00;58328.31;5043214;28;20135;-58
2022/08/24 02:46:40;;;;;;;13.70;7.45;;;;;;;-148.16;100.00;58328.31;5035495;28;20033;-58
2022/08/24 02:49:26;;;;;;;12.10;6.95;;;;;;;-148.16;100.00;58328.31;5045216;28;20071;-59
2022/08/24 02:52:11;;;;;;;11.77;7.30;;;;;;;-148.16;100.00;58328.31;5041298;28;20457;-58
2022/08/24 02:54:56;;;;;;;9.43;6.35;;;;;;;-148.16;100.00;58328.31;5046115;28;20041;-59
2022/08/24 02:57:41;;;;;;;11.65;7.03;;;;;;;-148.16;100.00;58328.31;5018469;28;20037;-58
2022/08/24 03:00:26;;;;;;;10.77;7.13;;;;;;;-148.16;100.00;58328.31;5049921;28;20052;-59
2022/08/24 03:03:13;;;;;;;11.88;7.28;;;;;;;-148.16;100.00;58328.31;5032203;28;20046;-58
2022/08/24 03:05:58;;;;;;;12.05;6.95;;;;;;;-148.16;100.00;58328.31;5031806;28;20112;-59
2022/08/24 03:08:44;;;;;;;12.13;7.20;;;;;;;-148.16;100.00;58328.31;5031974;28;20435;-57
2022/08/24 03:11:29;;;;;;;11.80;7.50;;;;;;;-148.16;100.00;58328.31;5058796;28;20610;-58
2022/08/24 03:14:14;;;;;;;11.52;7.68;;;;;;;-148.16;100.00;58328.31;5029963;28;20045;-58
2022/08/24 03:16:59;;;;;;;14.18;8.10;;;;;;;-148.16;100.00;58328.31;5028000;28;20153;-57
2022/08/24 03:19:44;;;;;;;15.35;7.68;;;;;;;-148.16;100.00;58328.31;5037177;28;20056;-58
2022/08/24 03:22:29;;;;;;;13.32;8.48;;;;;;;-148.16;100.00;58328.31;5050417;28;20044;-58
2022/08/24 03:25:16;;;;;;;12.57;7.72;;;;;;;-148.16;100.00;58328.31;5030515;28;20041;-58
2022/08/24 03:28:01;;;;;;;12.30;7.68;;;;;;;-148.16;100.00;58328.31;5030289;28;20038;-58
2022/08/24 03:30:47;;;;;;;12.75;7.57;;;;;;;-148.16;100.00;58328.31;5030630;28;20057;-58
2022/08/24 03:33:31;;;;;;;11.25;7.47;;;;;;;-148.16;100.00;58328.31;5069446;28;20044;-58
2022/08/24 03:36:16;;;;;;;13.15;7.68;;;;;;;-148.16;100.00;58328.31;5034493;28;20036;-58
2022/08/24 03:39:02;;;;;;;15.65;8.52;;;;;;;-148.16;100.00;58328.31;5036528;28;20480;-59
2022/08/24 03:41:47;;;;;;;13.70;8.07;;;;;;;-148.16;100.00;58328.31;5039776;28;20183;-58
2022/08/24 03:44:32;;;;;;;12.93;8.45;;;;;;;-148.16;100.00;58328.31;5029768;28;20060;-57
2022/08/24 03:47:19;;;;;;;17.95;8.55;;;;;;;-148.16;100.00;58328.31;5032689;28;20437;-58
2022/08/24 03:50:05;;;;;;;15.90;9.50;;;;;;;-148.16;100.00;58328.31;5027333;28;20057;-59
2022/08/24 03:52:51;;;;;;;13.20;9.30;;;;;;;-148.16;100.00;58328.31;5030210;28;20103;-58
2022/08/24 03:55:36;;;;;;;13.10;9.05;;;;;;;-148.16;100.00;58328.31;5060509;28;20038;-59
2022/08/24 03:58:21;;;;;;;13.55;8.48;;;;;;;-148.16;100.00;58328.31;5029024;28;20044;-58
2022/08/24 04:01:07;;;;;;;13.05;8.50;;;;;;;-148.16;100.00;58328.31;5055648;28;20037;-58
2022/08/24 04:03:59;;;;;;;12.57;8.02;;;;;;;-148.16;100.00;58328.31;5046135;28;20053;-58
2022/08/24 04:06:48;;;;;;;14.85;8.60;;;;;;;-148.16;100.00;58328.31;5031646;28;20048;-58
2022/08/24 04:09:34;;;;;;;14.60;8.48;;;;;;;-148.16;100.00;58328.31;5034222;28;20045;-58
2022/08/24 04:12:18;;;;;;;13.70;7.53;;;;;;;-148.16;100.00;58328.31;5047678;28;20045;-58
2022/08/24 04:15:04;;;;;;;13.80;8.48;;;;;;;-148.16;100.00;58328.31;5036898;28;20040;-58
2022/08/24 04:17:50;;;;;;;13.93;8.00;;;;;;;-148.16;100.00;58328.31;5049892;28;20041;-58
2022/08/24 04:20:40;;;;;;;12.00;8.00;;;;;;;-148.16;100.00;58328.31;5022541;28;20041;-58
2022/08/24 04:23:28;;;;;;;13.77;7.72;;;;;;;-148.16;100.00;58328.31;5033059;28;20103;-58
2022/08/24 04:26:14;;;;;;;14.65;7.78;;;;;;;-148.16;100.00;58328.31;5033474;28;20045;-59
2022/08/24 04:28:59;;;;;;;14.60;8.80;;;;;;;-148.16;100.00;58328.31;5033957;28;20065;-59
2022/08/24 04:31:44;;;;;;;13.27;7.80;;;;;;;-148.16;100.00;58328.31;5034995;28;20136;-58
2022/08/24 04:34:29;;;;;;;14.88;8.27;;;;;;;-148.16;100.00;58328.31;5046473;28;20468;-58
2022/08/24 04:37:16;;;;;;;13.82;8.48;;;;;;;-148.16;100.00;58328.31;5020053;28;20060;-58
2022/08/24 04:40:02;;;;;;;11.43;7.32;;;;;;;-148.16;100.00;58328.31;5006026;28;20053;-58
2022/08/24 04:42:51;;;;;;;11.77;7.05;;;;;;;-148.16;100.00;58328.31;5033526;28;20033;-58
2022/08/24 04:45:40;;;;;;;14.55;8.63;;;;;;;-148.16;100.00;58328.31;5020217;28;20056;-58
2022/08/24 04:48:25;;;;;;;12.95;8.40;;;;;;;-148.16;100.00;58328.31;5033123;28;20042;-58
2022/08/24 04:51:12;;;;;;;11.80;7.97;;;;;;;-148.16;100.00;58328.31;5019498;28;20108;-59
2022/08/24 04:53:57;;;;;;;12.48;8.43;;;;;;;-148.16;100.00;58328.31;5035759;28;20049;-58
2022/08/24 04:56:42;;;;;;;13.10;7.97;;;;;;;-148.16;100.00;58328.31;5038419;28;20033;-57
2022/08/24 04:59:28;;;;;;;11.35;7.05;;;;;;;-148.16;100.00;58328.31;5046895;28;20075;-58
2022/08/24 05:02:13;;;;;;;13.75;8.70;;;;;;;-148.16;100.00;58328.31;5030234;28;20049;-59
2022/08/24 05:04:58;;;;;;;12.93;8.20;;;;;;;-148.16;100.00;58328.31;5065532;28;20091;-58
2022/08/24 05:07:43;;;;;;;11.48;7.38;;;;;;;-148.16;100.00;58328.31;5046077;28;20037;-58
2022/08/24 05:10:28;;;;;;;11.27;7.30;;;;;;;-148.16;100.00;58328.31;5040696;28;20046;-58
2022/08/24 05:13:15;;;;;;;13.32;7.32;;;;;;;-148.16;100.00;58328.31;5032600;28;20116;-58
2022/08/24 05:16:00;;;;;;;11.70;7.45;;;;;;;-148.16;100.00;58328.31;5060741;28;20033;-58
2022/08/24 05:18:45;;;;;;;11.68;7.03;;;;;;;-148.16;100.00;58328.31;5044061;28;20037;-57
2022/08/24 05:21:30;;;;;;;13.73;7.88;;;;;;;-148.16;100.00;58328.31;5033260;28;20052;-58
2022/08/24 05:24:17;;;;;;;13.98;6.95;;;;;;;-148.16;100.00;58328.31;5018813;28;20065;-58
2022/08/24 05:27:02;;;;;;;11.95;6.88;;;;;;;-148.16;100.00;58328.31;5032556;28;20048;-58
2022/08/24 05:29:54;;;;;;;10.40;6.75;;;;;;;-148.16;100.00;58328.31;5060463;28;20099;-57
2022/08/24 05:32:40;;;;;;;12.40;6.72;;;;;;;-148.16;100.00;58328.31;5034019;28;20140;-57
2022/08/24 05:35:25;;;;;;;12.93;7.05;;;;;;;-148.16;100.00;58328.31;5041476;28;20033;-57
2022/08/24 05:38:11;;;;;;;10.88;7.07;;;;;;;-148.16;100.00;58328.31;5032359;28;20166;-58
2022/08/24 05:40:55;;;;;;;11.73;6.72;;;;;;;-148.16;100.00;58328.31;5033186;28;20044;-57
2022/08/24 05:43:43;;;;;;;11.68;6.32;;;;;;;-148.16;100.00;58328.31;5040063;28;20068;-57
2022/08/24 05:46:30;;;;;;;11.80;8.00;;;;;;;-148.16;100.00;58328.31;5031747;28;20042;-57
2022/08/24 05:49:15;;;;;;;11.52;6.18;;;;;;;-148.16;100.00;58328.31;5035028;28;20535;-58
2022/08/24 05:52:01;;;;;;;17.45;6.43;;;;;;;-148.16;100.00;58328.31;5031382;28;20033;-58
2022/08/24 05:54:58;;;;;;;11.73;6.38;;;;;;;-148.16;100.00;58328.31;5045909;28;20048;-59
2022/08/24 05:57:44;;;;;;;8.98;6.03;;;;;;;-148.16;100.00;58328.31;5047347;28;20041;-58
2022/08/24 06:00:36;;;;;;;8.80;5.35;;;;;;;-148.16;100.00;58328.31;5028948;28;20060;-60
2022/08/24 06:03:21;;;;;;;9.40;5.57;;;;;;;-148.16;100.00;58328.31;5049036;28;20048;-59
2022/08/24 06:06:10;;;;;;;10.07;5.32;;;;;;;-148.16;100.00;58328.31;5036782;28;20037;-59
2022/08/24 06:08:58;;;;;;;8.70;5.45;;;;;;;-148.16;100.00;58328.31;5034908;28;20044;-60
2022/08/24 06:11:46;;;;;;;7.30;5.00;;;;;;;-148.16;100.00;58328.31;5043984;28;20057;-59
2022/08/24 06:14:33;;;;;;;10.10;5.38;;;;;;;-148.16;100.00;58328.31;5045423;28;20048;-59
2022/08/24 06:17:18;;;;;;;9.35;5.47;;;;;;;-148.16;100.00;58328.31;5031149;28;20037;-58
2022/08/24 06:20:04;;;;;;;7.00;4.95;;;;;;;-148.16;100.00;58328.31;5018863;28;20037;-58
2022/08/24 06:22:49;;;;;;;6.85;4.65;;;;;;;-148.16;100.00;58328.31;5032693;28;20042;-56
2022/08/24 06:28:42;;;;;;;7.32;5.18;;;;;;;-148.16;100.00;58328.31;5032520;28;20034;-59
2022/08/24 06:31:27;;;;;;;10.70;5.40;;;;;;;-148.16;100.00;58328.31;5031165;28;20045;-56
2022/08/24 06:34:17;;;;;;;8.70;4.32;;;;;;;-148.16;100.00;58328.31;5032295;28;20033;-58
2022/08/24 06:37:01;;;;;;;8.25;4.82;;;;;;;-148.16;100.00;58328.31;5023549;28;20152;-57
2022/08/24 06:39:46;;;;;;;11.18;5.10;;;;;;;-148.16;100.00;58328.31;5030125;28;20433;-58
2022/08/24 06:42:33;;;;;;;8.40;5.50;;;;;;;-148.16;100.00;58328.31;5041744;28;20084;-58
2022/08/24 06:45:18;;;;;;;12.60;6.07;;;;;;;-148.16;100.00;58328.31;5031594;28;20052;-59
2022/08/24 06:48:03;;;;;;;10.88;6.15;;;;;;;-148.16;100.00;58328.31;5026298;28;20464;-59
2022/08/24 06:50:49;;;;;;;7.53;4.82;;;;;;;-148.16;100.00;58328.31;5032551;28;20049;-59
2022/08/24 06:53:34;;;;;;;10.98;4.93;;;;;;;-148.16;100.00;58328.31;5025441;28;20033;-57
2022/08/24 06:56:21;;;;;;;10.15;5.25;;;;;;;-148.16;100.00;58328.31;5030479;28;20030;-58
2022/08/24 06:59:06;;;;;;;8.88;4.88;;;;;;;-148.16;100.00;58328.31;5031090;28;20099;-58
2022/08/24 07:01:52;;;;;;;7.57;4.72;;;;;;;-148.16;100.00;58328.31;5032118;28;20048;-58
2022/08/24 07:04:37;;;;;;;7.85;4.82;;;;;;;-148.16;100.00;58328.31;5068137;28;20045;-58
2022/08/24 07:07:41;;;;;;;8.48;4.97;;;;;;;-148.16;100.00;58328.31;5031974;28;20111;-57
2022/08/24 07:10:26;;;;;;;9.18;4.90;;;;;;;-148.16;100.00;58328.31;5031288;28;20426;-58
2022/08/24 07:13:13;;;;;;;7.82;4.55;;;;;;;-148.16;100.00;58328.31;5031911;28;20045;-58
2022/08/24 07:16:00;;;;;;;8.25;4.80;;;;;;;-148.16;100.00;58328.31;5032098;28;20380;-57
2022/08/24 07:18:46;;;;;;;8.73;5.15;;;;;;;-148.16;100.00;58328.31;5043077;28;20041;-57
2022/08/24 07:21:32;;;;;;;10.77;5.95;;;;;;;-148.16;100.00;58328.31;5022047;28;20041;-57
2022/08/24 07:24:17;;;;;;;9.63;5.47;;;;;;;-148.16;100.00;58328.31;5021313;28;20099;-59
2022/08/24 07:27:08;;;;;;;10.80;4.93;;;;;;;-148.16;100.00;58328.31;5030598;28;20040;-58
2022/08/24 07:29:53;;;;;;;8.07;4.57;;;;;;;-148.16;100.00;58328.31;5047044;28;20061;-57
2022/08/24 07:32:39;;;;;;;11.23;4.57;;;;;;;-148.16;100.00;58328.31;5039057;28;20484;-53
2022/08/24 07:35:26;;;;;;;10.55;4.25;;;;;;;-148.16;100.00;58328.31;5044494;28;20357;-58
2022/08/24 07:38:11;;;;;;;11.35;4.40;;;;;;;-148.16;100.00;58328.31;5030772;28;20619;-59
2022/08/24 07:40:59;;;;;;;9.82;4.47;;;;;;;-148.16;100.00;58328.31;5043854;28;20329;-57
2022/08/24 07:43:45;;;;;;;7.53;3.70;;;;;;;-148.16;100.00;58328.31;5031278;28;20049;-58
2022/08/24 07:46:31;;;;;;;10.00;4.05;;;;;;;-148.16;100.00;58328.31;5032334;28;20045;-58
2022/08/24 07:49:16;;;;;;;8.40;4.65;;;;;;;-148.16;100.00;58328.31;5034542;28;20057;-57
2022/08/24 07:52:03;;;;;;;7.63;4.43;;;;;;;-148.16;100.00;58328.31;5030374;28;20050;-59
2022/08/24 07:54:48;;;;;;;6.35;3.85;;;;;;;-148.16;100.00;58328.31;5021649;28;20042;-56
2022/08/24 07:57:34;;;;;;;6.57;4.20;;;;;;;-148.16;100.00;58328.31;5049714;28;20098;-56
2022/08/24 08:00:20;;;;;;;6.97;3.63;;;;;;;-148.16;100.00;58328.31;5021544;28;20045;-58
2022/08/24 08:03:10;;;;;;;8.10;4.20;;;;;;;-148.16;100.00;58328.31;5037362;28;20361;-57
2022/08/24 08:05:58;;;;;;;6.07;4.15;;;;;;;-148.16;100.00;58328.31;5049676;28;20107;-57
2022/08/24 08:08:43;;;;;;;6.50;3.72;;;;;;;-148.16;100.00;58328.31;5030560;28;20469;-57
2022/08/24 08:11:28;;;;;;;6.38;4.10;;;;;;;-148.16;100.00;58328.31;5029956;28;20045;-57
2022/08/24 08:14:13;;;;;;;6.75;4.32;;;;;;;-148.16;100.00;58328.31;5030789;28;20053;-58
2022/08/24 08:16:58;;;;;;;12.23;4.57;;;;;;;-148.16;100.00;58328.31;5035163;28;20116;-58
2022/08/24 08:19:44;;;;;;;8.60;4.57;;;;;;;-148.16;100.00;58328.31;5035852;28;20041;-57
2022/08/24 08:25:53;;;;;;;9.57;4.57;;;;;;;-148.16;100.00;58328.31;5038976;28;20538;-58
2022/08/24 08:28:58;;;;;;;7.78;4.18;;;;;;;-148.16;100.00;58328.31;5048489;28;20064;-58
2022/08/24 08:31:44;;;;;;;8.13;4.55;;;;;;;-148.16;100.00;58328.31;5043009;28;20034;-56
2022/08/24 08:34:30;;;;;;;6.88;4.30;;;;;;;-148.16;100.00;58328.31;5016321;28;20041;-58
2022/08/24 08:37:15;;;;;;;8.15;4.85;;;;;;;-148.16;100.00;58328.31;5036486;28;20095;-58
2022/08/24 08:40:00;;;;;;;9.40;4.85;;;;;;;-148.16;100.00;58328.31;5031585;28;20052;-58
2022/08/24 08:43:09;;;;;;;7.80;4.93;;;;;;;-148.16;100.00;58328.31;5049593;28;20373;-58
2022/08/24 08:46:10;;;;;;;9.75;4.93;;;;;;;-148.16;100.00;58328.31;5046464;28;20094;-57
2022/08/24 08:49:33;;;;;;;8.68;5.32;;;;;;;-148.16;100.00;58328.31;5037961;28;20058;-58
2022/08/24 08:52:31;;;;;;;8.73;5.25;;;;;;;-148.16;100.00;58328.31;5028482;28;20499;-56
2022/08/24 08:55:29;;;;;;;10.02;4.55;;;;;;;-148.16;100.00;58328.31;5041575;28;20407;-58
2022/08/24 08:58:36;;;;;;;8.82;5.45;;;;;;;-148.16;100.00;58328.31;5063980;28;20032;-58
2022/08/24 09:01:50;;;;;;;8.38;4.53;;;;;;;-148.16;100.00;58328.31;5052069;28;20056;-58
2022/08/24 09:05:01;;;;;;;9.32;4.78;;;;;;;-148.16;100.00;58328.31;5028181;28;20373;-60
2022/08/24 09:07:54;;;;;;;10.80;5.05;;;;;;;-148.16;100.00;58328.31;5033093;28;20384;-59
2022/08/24 09:10:59;;;;;;;9.90;5.25;;;;;;;-148.16;100.00;58328.31;5030972;28;20037;-58
2022/08/24 09:13:54;;;;;;;7.60;4.45;;;;;;;-148.16;100.00;58328.31;5042438;28;20041;-59
2022/08/24 09:17:16;;;;;;;8.23;5.10;;;;;;;-148.16;100.00;58328.31;5037831;28;20060;-59
2022/08/24 09:20:04;;;;;;;8.43;4.50;;;;;;;-148.16;100.00;58328.31;5043582;28;20025;-59
2022/08/24 09:23:08;;;;;;;9.25;5.20;;;;;;;-148.16;100.00;58328.31;5018854;28;20045;-59
2022/08/24 09:26:05;;;;;;;6.80;4.43;;;;;;;-148.16;100.00;58328.31;5039749;28;20042;-59
2022/08/24 09:29:04;;;;;;;8.98;4.80;;;;;;;-148.16;100.00;58328.31;5032827;28;20377;-59
2022/08/24 09:32:10;;;;;;;9.52;4.70;;;;;;;-148.16;100.00;58328.31;5032326;28;20038;-59
2022/08/24 09:35:00;;;;;;;8.45;4.70;;;;;;;-148.16;100.00;58328.31;5033727;28;20037;-59
2022/08/24 09:38:09;;;;;;;8.73;5.05;;;;;;;-148.16;100.00;58328.31;5033893;28;20037;-58
2022/08/24 09:41:02;;;;;;;6.95;3.95;;;;;;;-148.16;100.00;58328.31;5039898;28;20045;-58
2022/08/24 09:44:13;;;;;;;7.68;4.38;;;;;;;-148.16;100.00;58328.31;5034326;28;20381;-59
2022/08/24 09:46:58;;;;;;;8.65;4.20;;;;;;;-148.16;100.00;58328.31;5033805;28;20068;-60
2022/08/24 09:50:10;;;;;;;6.80;4.28;;;;;;;-148.16;100.00;58328.31;5033354;28;20057;-60
2022/08/24 09:53:19;;;;;;;8.45;4.75;;;;;;;-148.16;100.00;58328.31;5033299;28;20034;-59
2022/08/24 09:56:30;;;;;;;6.93;4.13;;;;;;;-148.16;100.00;58328.31;5033343;28;20531;-57
2022/08/24 09:59:49;;;;;;;6.95;4.70;;;;;;;-148.16;100.00;58328.31;5044783;28;20126;-57
2022/08/24 10:03:06;;;;;;;8.35;5.30;;;;;;;-148.16;100.00;58328.31;5035443;28;20053;-58
2022/08/24 10:06:40;;;;;;;8.65;4.50;;;;;;;-148.16;100.00;58328.31;5031048;28;20049;-58
2022/08/24 10:10:01;;;;;;;8.25;5.03;;;;;;;-148.16;100.00;58328.31;5045137;28;20045;-58
2022/08/24 10:13:04;;;;;;;8.57;5.05;;;;;;;-148.16;100.00;58328.31;5039178;28;20037;-60
2022/08/24 10:16:02;;;;;;;8.73;5.38;;;;;;;-148.16;100.00;58328.31;5037547;28;20095;-58
2022/08/24 10:19:00;;;;;;;10.82;5.40;;;;;;;-148.16;100.00;58328.31;5040483;28;20064;-58
2022/08/24 10:21:49;;;;;;;7.85;4.97;;;;;;;-148.16;100.00;58328.31;5040707;28;20048;-58
2022/08/24 10:24:44;;;;;;;9.57;5.55;;;;;;;-148.16;100.00;58328.31;5032673;28;20033;-59
2022/08/24 10:27:41;;;;;;;10.02;4.72;;;;;;;-148.16;100.00;58328.31;5033793;28;20045;-58
2022/08/24 10:30:51;;;;;;;8.57;4.78;;;;;;;-148.16;100.00;58328.31;5045572;28;20033;-59
2022/08/24 10:34:03;;;;;;;9.88;4.85;;;;;;;-148.16;100.00;58328.31;5031547;28;20045;-57
2022/08/24 10:37:10;;;;;;;8.30;5.43;;;;;;;-148.16;100.00;58328.31;5038410;28;20041;-58
2022/08/24 10:40:35;;;;;;;8.25;5.07;;;;;;;-148.16;100.00;58328.31;5045415;28;20041;-58
2022/08/24 10:43:35;;;;;;;7.78;5.10;;;;;;;-148.16;100.00;58328.31;5039975;28;20045;-58
2022/08/24 10:46:58;;;;;;;11.30;5.75;;;;;;;-148.16;100.00;58328.31;5017692;28;20049;-58
2022/08/24 10:49:58;;;;;;;7.80;5.07;;;;;;;-148.16;100.00;58328.31;5032374;28;20050;-59
2022/08/24 10:53:13;;;;;;;17.90;6.10;;;;;;;-148.16;100.00;58328.31;5042071;28;20132;-59
2022/08/24 10:56:15;;;;;;;11.20;5.93;;;;;;;-148.16;100.00;58328.31;5033077;28;20429;-59
2022/08/24 10:59:09;;;;;;;9.82;5.78;;;;;;;-148.16;100.00;58328.31;5041002;28;20037;-59
2022/08/24 11:02:27;;;;;;;8.18;5.00;;;;;;;-148.16;100.00;58328.31;5034806;28;20033;-57
2022/08/24 11:05:15;;;;;;;10.00;5.68;;;;;;;-148.16;100.00;58328.31;5044594;28;20060;-58
2022/08/24 11:08:04;;;;;;;9.45;4.95;;;;;;;-148.16;100.00;58328.31;5032078;28;20034;-58
2022/08/24 11:11:07;;;;;;;8.85;5.00;;;;;;;-148.16;100.00;58328.31;5031931;28;20040;-59
2022/08/24 11:14:15;;;;;;;10.68;5.40;;;;;;;-148.16;100.00;58328.31;5036160;28;20034;-58
2022/08/24 11:17:16;;;;;;;9.40;5.10;;;;;;;-148.16;100.00;58328.31;5031781;28;20038;-59
2022/08/24 11:20:01;;;;;;;12.07;5.90;;;;;;;-148.16;100.00;58328.31;5037044;28;20041;-59
2022/08/24 11:23:08;;;;;;;10.40;5.60;;;;;;;-148.16;100.00;58328.31;5068973;28;20060;-59
2022/08/24 11:26:06;;;;;;;10.50;6.25;;;;;;;-148.16;100.00;58328.31;5031877;28;20045;-58
2022/08/24 11:29:04;;;;;;;8.88;4.90;;;;;;;-148.16;100.00;58328.31;5031689;28;20033;-57
2022/08/24 11:31:51;;;;;;;9.05;5.07;;;;;;;-148.16;100.00;58328.31;5036825;28;20047;-58
2022/08/24 11:34:38;;;;;;;10.43;4.97;;;;;;;-148.16;100.00;58328.31;5036587;28;20042;-57
2022/08/24 11:37:31;;;;;;;6.55;4.50;;;;;;;-148.16;100.00;58328.31;5040914;28;20045;-57
2022/08/24 11:40:18;;;;;;;7.63;4.47;;;;;;;-148.16;100.00;58328.31;5058290;28;20380;-57
2022/08/24 11:43:21;;;;;;;8.45;5.07;;;;;;;-148.16;100.00;58328.31;5043728;28;20124;-59
2022/08/24 11:46:27;;;;;;;10.30;4.70;;;;;;;-148.16;100.00;58328.31;5037961;28;20060;-57
2022/08/24 11:49:24;;;;;;;11.55;4.05;;;;;;;-148.16;100.00;58328.31;5031384;28;20060;-59
2022/08/24 11:52:14;;;;;;;7.28;4.88;;;;;;;-148.16;100.00;58328.31;5031417;28;20038;-59
2022/08/24 11:55:09;;;;;;;8.48;5.25;;;;;;;-148.16;100.00;58328.31;5041507;28;20048;-58
2022/08/24 11:58:22;;;;;;;11.63;5.45;;;;;;;-148.16;100.00;58328.31;5031647;28;20482;-58
2022/08/24 12:01:22;;;;;;;7.85;4.60;;;;;;;-148.16;100.00;58328.31;5031444;28;20038;-58
2022/08/24 12:04:33;;;;;;;7.65;4.68;;;;;;;-148.16;100.00;58328.31;5030158;28;20045;-58
2022/08/24 12:07:38;;;;;;;8.80;5.18;;;;;;;-148.16;100.00;58328.31;5033805;28;20049;-56
2022/08/24 12:11:08;;;;;;;8.35;5.07;;;;;;;-148.16;100.00;58328.31;5030455;28;20041;-56
2022/08/24 12:13:58;;;;;;;9.32;5.53;;;;;;;-148.16;100.00;58328.31;5033223;28;20048;-58
2022/08/24 12:16:49;;;;;;;9.20;4.50;;;;;;;-148.16;100.00;58328.31;5042178;28;20522;-57
2022/08/24 12:19:42;;;;;;;11.23;5.10;;;;;;;-148.16;100.00;58328.31;5040730;28;20037;-58
2022/08/24 12:22:29;;;;;;;9.63;4.80;;;;;;;-148.16;100.00;58328.31;5034876;28;20041;-58
2022/08/24 12:28:28;;;;;;;8.38;5.45;;;;;;;-148.16;100.00;58328.31;5033767;28;20049;-59
2022/08/24 12:31:28;;;;;;;8.45;5.40;;;;;;;-148.16;100.00;58328.31;5038034;28;20100;-60
2022/08/24 12:34:20;;;;;;;;;;;;;;;-148.16;100.00;58328.31;5037150;28;20388;-58
2022/08/24 12:37:07;;;;;;;9.27;4.93;;;;;;;-148.16;100.00;58328.31;5043678;28;20253;-58
2022/08/24 12:40:07;;;;;;;11.50;5.03;;;;;;;-148.16;100.00;58328.31;5040839;28;20472;-58
2022/08/24 12:43:24;;;;;;;10.77;4.87;;;;;;;-148.16;100.00;58328.31;5034756;28;20037;-59
2022/08/24 12:46:12;;;;;;;8.23;4.80;;;;;;;-148.16;100.00;58328.31;5034715;28;20774;-58
2022/08/24 12:49:00;;;;;;;8.35;5.18;;;;;;;-148.16;100.00;58328.31;5046275;28;20037;-58
2022/08/24 12:51:51;;;;;;;10.00;5.10;;;;;;;-148.16;100.00;58328.31;5039086;28;20036;-58
2022/08/24 12:54:45;;;;;;;9.63;5.70;;;;;;;-148.16;100.00;58328.31;5033382;28;20041;-58
2022/08/24 12:58:22;;;;;;;10.05;5.45;;;;;;;-148.16;100.00;58328.31;5040071;28;20043;-58
2022/08/24 13:01:10;;;;;;;8.35;4.68;;;;;;;-148.16;100.00;58328.31;5013570;28;20049;-58
2022/08/24 13:04:04;;;;;;;10.43;5.53;;;;;;;-148.16;100.00;58328.31;5041087;28;20049;-60
2022/08/24 13:06:57;;;;;;;9.77;5.57;;;;;;;-148.16;100.00;58328.31;5034257;28;20038;-58